Coal Creek, Colorado
Current Conditions -  °F | °C
As of 5:55 PM on Saturday 22 Nov 2014 (Local Time) from K1V6 Reporting Station
Clear Clear  
Wind Chill: 55°   Ceiling: Unl
Heat Index: 55°   Visibility: 10mi
Dew Point: 19°   Wind: 24mph
Humidity: 25%   Direction: 260°W
Pressure: 29.64"   Gusts: 33mph
Location:  38.36°N, 105.15°W
Report Text: K1V6 230055Z AUTO 26021G29KT 10SM CLR 13/M07 A2964 RMK AO2
Loading
Personal Weather Stations






























Interactive Weather Map New forecast layout! Learn more

10-Day Weather Forecast

Advertisements
Track Severe Weather on mobile